首页
METAR-TAF:

METAR-TAF

机场 :

濟州國際機場

濟州, 大韩民国

纬度: 33-30N, 经度: 126-30E, 海拔: 36米

当前天气观测

该预报发布于22分钟前的05:00 UTC
风速5节,风向西转西北,在西南西北之间变化
温度 20°C
湿度 73%
气压 1006 hPa
能见度10公里或以上
少量云层高于3000英尺

METAR: RKPC 280500Z 29005KT 220V320 9999 FEW030 20/15 Q1006 NOSIG

时间: 14:22 (05:22 UTC)

预报

该预报发布于6小时和22分钟前的23:00 UTC
预报有效从28日的 00点(UTC)到 29日的 06点(UTC)
风速8节,风向北转西北
能见度10公里或以上
1500米以下无云,无积雨云
成为
从 28日的 10点(UTC)到 28日的 11点(UTC)
风速5节,风向南转西南
成为
从 28日的 22点(UTC)到 28日的 23点(UTC)
风速7节,风向东北
成为
从 29日的 04点(UTC)到 29日的 05点(UTC)
风速15节,风向东转东北,有时为25节阵风

TAF: RKPC 272300Z 2800/2906 33008KT CAVOK TX21/2805Z TN15/2820Z TX24/2905Z BECMG 2810/2811 21005KT BECMG 2822/2823 04007KT BECMG 2904/2905 06015G25KT

超过4000个机场的气象观测和天气预报(METAR&TAF报告)。

可查询的气象台以黄色和红色小点在地图上表示。

将鼠标移到小点上方,可查看气象台名称。

然后点击查看天气观测和预报。

如需切换地图:点击带黑十字的绿色按钮放大地图;点击带横线的绿色按钮缩小地图;或者点击绿色箭头查看邻近地区的地图。


METAR-TAF: